Time;durP1;ratioP1;P1;durP2;ratioP2;P2;SDS_P1;SDS_P2;PMS_P1;PMS_P2;Temp;Humidity;BMP_temperature;BMP_pressure;BME280_temperature;BME280_humidity;BME280_pressure;Samples;Min_cycle;Max_cycle;Signal;HPM_P1;HPM_P2
2022/11/15 08:04:55;;;;;;;2.67;2.00;;;;;;;;;;12804569;22;1300888;-84
2022/11/15 08:09:56;;;;;;;;;;;;;;;;;;12742461;23;20006;-82
2022/11/15 08:14:57;;;;;;;2.10;1.83;;;;;;;;;;12694123;23;19920;-82
2022/11/15 08:19:58;;;;;;;;;;;;;;;;;;12697959;23;20001;-82
2022/11/15 08:24:59;;;;;;;4.38;1.83;;;;;;;;;;12700887;23;19912;-83
2022/11/15 08:30:01;;;;;;;3.53;2.22;;;;;;;;;;12730201;23;20002;-81
2022/11/15 08:35:02;;;;;;;5.22;2.92;;;;;;;;;;12733468;23;20018;-79
2022/11/15 08:40:04;;;;;;;4.35;2.42;;;;;;;;;;12733312;23;20018;-79
2022/11/15 08:45:06;;;;;;;6.65;2.13;;;;;;;;;;12733385;23;20002;-80
2022/11/15 08:50:07;;;;;;;3.13;2.10;;;;;;;;;;12734054;23;19994;-79
2022/11/15 08:55:08;;;;;;;3.47;2.35;;;;;;;;;;12732556;23;20027;-79
2022/11/15 09:00:30;;;;;;;3.25;1.80;;;;;;;;;;12732629;23;20021;-78
2022/11/15 09:05:59;;;;;;;2.22;1.70;;;;;;;;;;12606557;23;20010;-79
2022/11/15 09:16:36;;;;;;;3.25;1.70;;;;;;;;;;12671333;23;20006;-84
2022/11/15 09:27:41;;;;;;;4.15;2.10;;;;;;;;;;12489988;23;20016;-84
2022/11/15 09:38:55;;;;;;;2.88;1.88;;;;;;;;;;12595325;23;20011;-83
2022/11/15 09:44:24;;;;;;;2.58;1.85;;;;;;;;;;12580952;23;20014;-84
2022/11/15 09:49:27;;;;;;;7.80;3.10;;;;;;;;;;12558943;23;20013;-84
2022/11/15 09:54:34;;;;;;;4.40;1.60;;;;;;;;;;12561518;23;20007;-85
2022/11/15 09:59:44;;;;;;;3.55;1.92;;;;;;;;;;12705426;23;20006;-85
2022/11/15 10:04:45;;;;;;;3.42;1.65;;;;;;;;;;12702864;23;20021;-85
2022/11/15 10:09:49;;;;;;;3.15;1.40;;;;;;;;;;12704612;23;20030;-83
2022/11/15 10:14:56;;;;;;;3.75;1.55;;;;;;;;;;12710021;23;20093;-85
2022/11/15 10:20:03;;;;;;;3.50;2.22;;;;;;;;;;12707821;23;20005;-85
2022/11/15 10:25:13;;;;;;;3.22;1.40;;;;;;;;;;12699957;23;20006;-85
2022/11/15 10:30:16;;;;;;;2.78;1.40;;;;;;;;;;12702045;23;20006;-86
2022/11/15 10:35:21;;;;;;;2.85;1.38;;;;;;;;;;12705651;23;20006;-85
2022/11/15 10:40:23;;;;;;;3.25;1.90;;;;;;;;;;12711542;23;20006;-84
2022/11/15 10:45:26;;;;;;;5.65;3.20;;;;;;;;;;12708813;23;20006;-83
2022/11/15 10:50:29;;;;;;;3.88;1.90;;;;;;;;;;12720022;23;20029;-84
2022/11/15 10:55:31;;;;;;;4.97;1.48;;;;;;;;;;12722961;23;19998;-84
2022/11/15 11:00:35;;;;;;;3.10;1.10;;;;;;;;;;12721917;23;20006;-86
2022/11/15 11:05:37;;;;;;;4.55;1.20;;;;;;;;;;12725291;23;20002;-83
2022/11/15 11:10:39;;;;;;;5.20;1.00;;;;;;;;;;12720144;23;20018;-84
2022/11/15 11:15:40;;;;;;;1.60;1.20;;;;;;;;;;12729003;23;19990;-83
2022/11/15 11:20:55;;;;;;;7.25;1.40;;;;;;;;;;12727923;23;19998;-83
2022/11/15 11:26:11;;;;;;;2.15;1.20;;;;;;;;;;12715873;23;20092;-83
2022/11/15 11:31:25;;;;;;;3.75;1.05;;;;;;;;;;12700647;23;20116;-84
2022/11/15 11:36:26;;;;;;;5.15;1.35;;;;;;;;;;12704180;23;20006;-84
2022/11/15 11:41:27;;;;;;;;;;;;;;;;;;12714689;23;20009;-84
2022/11/15 11:46:38;;;;;;;4.15;1.10;;;;;;;;;;12715069;23;19905;-84
2022/11/15 11:51:39;;;;;;;2.03;1.27;;;;;;;;;;12706199;23;20010;-83
2022/11/15 11:56:42;;;;;;;2.63;1.10;;;;;;;;;;12702260;23;20002;-84
2022/11/15 12:01:44;;;;;;;5.05;1.25;;;;;;;;;;12703151;23;20005;-83
2022/11/15 12:06:54;;;;;;;1.80;1.20;;;;;;;;;;12703325;23;20012;-85
2022/11/15 12:12:05;;;;;;;3.77;2.60;;;;;;;;;;12697791;23;20025;-84
2022/11/15 12:17:08;;;;;;;3.53;1.40;;;;;;;;;;12698091;23;20017;-83
2022/11/15 12:22:17;;;;;;;3.95;1.30;;;;;;;;;;12699461;23;20013;-83
2022/11/15 12:27:21;;;;;;;2.75;0.82;;;;;;;;;;12722161;23;20005;-82
2022/11/15 12:32:28;;;;;;;3.45;1.27;;;;;;;;;;12725381;23;20020;-81
2022/11/15 12:37:40;;;;;;;2.78;1.25;;;;;;;;;;12718381;23;19998;-83
2022/11/15 12:42:42;;;;;;;4.38;0.98;;;;;;;;;;12704480;23;20157;-83
2022/11/15 12:47:43;;;;;;;13.18;1.67;;;;;;;;;;12706899;23;19998;-83
2022/11/15 12:52:44;;;;;;;;;;;;;;;;;;12705579;23;20006;-83
2022/11/15 12:57:45;;;;;;;3.92;1.55;;;;;;;;;;12708837;23;19901;-84
2022/11/15 13:02:48;;;;;;;3.30;0.90;;;;;;;;;;12710901;23;20013;-84
2022/11/15 13:07:49;;;;;;;2.13;1.15;;;;;;;;;;12708998;23;20010;-82
2022/11/15 13:12:51;;;;;;;2.83;1.00;;;;;;;;;;12705413;23;20032;-80
2022/11/15 13:17:53;;;;;;;3.33;1.30;;;;;;;;;;12714237;23;20006;-81
2022/11/15 13:23:09;;;;;;;2.00;1.00;;;;;;;;;;12697982;23;20009;-82
2022/11/15 13:28:10;;;;;;;3.20;1.13;;;;;;;;;;12693650;23;19998;-82
2022/11/15 13:33:11;;;;;;;;;;;;;;;;;;12693177;23;20335;-81
2022/11/15 13:38:24;;;;;;;3.10;1.05;;;;;;;;;;12693449;23;19965;-81
2022/11/15 13:49:03;;;;;;;3.10;1.08;;;;;;;;;;12692891;23;20033;-81
2022/11/15 13:54:23;;;;;;;2.42;1.10;;;;;;;;;;12693159;23;20013;-81
2022/11/15 13:59:31;;;;;;;1.88;1.10;;;;;;;;;;12692443;23;20017;-82
2022/11/15 14:04:34;;;;;;;3.72;1.40;;;;;;;;;;12691268;23;20103;-80
2022/11/15 14:09:54;;;;;;;3.78;1.40;;;;;;;;;;12688729;23;20451;-82
2022/11/15 14:14:56;;;;;;;6.90;1.50;;;;;;;;;;12692526;23;20037;-81
2022/11/15 14:19:58;;;;;;;4.55;1.73;;;;;;;;;;12714740;23;20096;-79
2022/11/15 14:25:05;;;;;;;107.10;7.10;;;;;;;;;;12727958;23;20005;-79
2022/11/15 14:30:07;;;;;;;3.75;1.20;;;;;;;;;;12711763;23;20017;-81
2022/11/15 14:35:16;;;;;;;3.42;1.00;;;;;;;;;;12692154;23;20009;-80
2022/11/15 14:40:18;;;;;;;3.17;1.05;;;;;;;;;;12694286;23;20021;-82
2022/11/15 14:45:22;;;;;;;2.80;1.40;;;;;;;;;;12690466;23;20006;-80
2022/11/15 14:50:23;;;;;;;3.88;1.30;;;;;;;;;;12691760;23;20002;-81
2022/11/15 15:01:14;;;;;;;2.45;1.20;;;;;;;;;;12672440;23;20018;-81
2022/11/15 15:06:18;;;;;;;5.00;2.10;;;;;;;;;;12690810;23;20030;-81
2022/11/15 15:11:23;;;;;;;3.72;1.73;;;;;;;;;;12665733;23;20013;-80
2022/11/15 15:16:25;;;;;;;3.25;1.70;;;;;;;;;;12709554;23;20010;-82
2022/11/15 15:21:27;;;;;;;5.25;1.50;;;;;;;;;;12732228;23;20014;-80
2022/11/15 15:26:36;;;;;;;2.70;1.40;;;;;;;;;;12722886;23;20017;-80
2022/11/15 15:31:37;;;;;;;7.47;4.53;;;;;;;;;;12698705;23;20029;-81
2022/11/15 15:36:40;;;;;;;5.18;1.75;;;;;;;;;;12671494;23;20009;-82
2022/11/15 15:42:06;;;;;;;4.05;1.58;;;;;;;;;;12697302;23;20013;-83
2022/11/15 15:47:22;;;;;;;5.53;1.58;;;;;;;;;;12693350;23;20006;-81
2022/11/15 15:52:25;;;;;;;3.22;1.63;;;;;;;;;;12695574;23;19998;-83
2022/11/15 15:57:26;;;;;;;4.65;1.70;;;;;;;;;;12693581;23;20002;-82
2022/11/15 16:02:28;;;;;;;2.38;1.60;;;;;;;;;;12691924;23;20002;-84
2022/11/15 16:07:29;;;;;;;3.63;1.75;;;;;;;;;;12698837;23;20006;-82
2022/11/15 16:12:31;;;;;;;3.35;2.33;;;;;;;;;;12698535;23;20009;-87
2022/11/15 16:17:36;;;;;;;3.92;2.00;;;;;;;;;;12719012;23;20018;-86
2022/11/15 16:22:38;;;;;;;4.25;1.70;;;;;;;;;;12702660;23;20088;-83
2022/11/15 16:27:44;;;;;;;4.88;2.33;;;;;;;;;;12700257;23;20014;-83
2022/11/15 16:32:46;;;;;;;4.82;2.95;;;;;;;;;;12705641;23;20054;-83
2022/11/15 16:38:05;;;;;;;2.70;1.80;;;;;;;;;;12701686;23;20100;-83
2022/11/15 16:43:06;;;;;;;2.42;1.70;;;;;;;;;;12697851;23;20465;-82
2022/11/15 16:48:15;;;;;;;4.40;2.38;;;;;;;;;;12696988;23;20057;-83
2022/11/15 16:53:16;;;;;;;4.60;1.88;;;;;;;;;;12697184;23;20006;-83
2022/11/15 16:58:17;;;;;;;4.30;1.88;;;;;;;;;;12704365;23;20006;-83
2022/11/15 17:03:19;;;;;;;6.40;2.47;;;;;;;;;;12697393;23;20010;-82
2022/11/15 17:08:21;;;;;;;4.38;2.50;;;;;;;;;;12698298;23;20002;-82
2022/11/15 17:13:22;;;;;;;3.92;2.20;;;;;;;;;;12701848;23;20064;-83
2022/11/15 17:18:23;;;;;;;;;;;;;;;;;;12702902;23;20069;-82
2022/11/15 17:23:24;;;;;;;3.40;1.65;;;;;;;;;;12701821;23;19944;-83
2022/11/15 17:28:25;;;;;;;3.47;2.40;;;;;;;;;;12708182;23;20053;-87
2022/11/15 17:33:26;;;;;;;5.88;1.90;;;;;;;;;;12716051;23;20021;-85
2022/11/15 17:38:28;;;;;;;5.40;3.60;;;;;;;;;;12710364;23;20010;-86
2022/11/15 17:43:29;;;;;;;4.35;2.63;;;;;;;;;;12698730;23;20093;-86
2022/11/15 17:48:30;;;;;;;4.75;2.40;;;;;;;;;;12693172;23;20002;-86
2022/11/15 17:53:39;;;;;;;4.10;2.20;;;;;;;;;;12695659;23;20006;-86
2022/11/15 17:58:40;;;;;;;3.15;1.95;;;;;;;;;;12700564;23;20005;-85
2022/11/15 18:03:41;;;;;;;2.95;1.88;;;;;;;;;;12699722;23;20502;-86
2022/11/15 18:08:43;;;;;;;3.88;2.30;;;;;;;;;;12702993;23;20006;-86
2022/11/15 18:13:45;;;;;;;2.63;1.60;;;;;;;;;;12706708;23;20037;-85
2022/11/15 18:18:46;;;;;;;2.88;1.73;;;;;;;;;;12699826;23;20034;-86
2022/11/15 18:23:48;;;;;;;4.22;2.00;;;;;;;;;;12703108;23;20045;-86
2022/11/15 18:28:49;;;;;;;3.47;2.30;;;;;;;;;;12699323;23;20301;-85
2022/11/15 18:33:50;;;;;;;;;;;;;;;;;;12696689;23;20005;-86
2022/11/15 18:39:01;;;;;;;5.40;2.80;;;;;;;;;;12705043;23;19900;-87
2022/11/15 18:44:03;;;;;;;3.53;2.30;;;;;;;;;;12699538;23;20084;-86
2022/11/15 18:49:06;;;;;;;4.40;2.60;;;;;;;;;;12701211;23;20281;-86
2022/11/15 18:54:10;;;;;;;5.65;2.05;;;;;;;;;;12703030;23;20008;-85
2022/11/15 18:59:11;;;;;;;3.72;2.22;;;;;;;;;;12703929;23;20017;-86
2022/11/15 19:04:12;;;;;;;;;;;;;;;;;;12699807;23;20041;-86
2022/11/15 19:15:14;;;;;;;4.43;2.00;;;;;;;;;;12847650;23;20025;-88
2022/11/15 19:20:39;;;;;;;3.20;1.90;;;;;;;;;;12779044;23;20005;-85
2022/11/15 19:26:02;;;;;;;3.33;2.15;;;;;;;;;;12768314;23;20041;-86
2022/11/15 19:37:10;;;;;;;3.67;2.15;;;;;;;;;;12527523;23;20023;-85
2022/11/15 19:42:26;;;;;;;3.78;2.40;;;;;;;;;;12722209;23;20057;-85
2022/11/15 19:47:48;;;;;;;2.28;1.80;;;;;;;;;;12772357;23;20033;-86
2022/11/15 20:04:34;;;;;;;4.63;2.28;;;;;;;;;;12646770;23;20014;-86
2022/11/15 20:09:51;;;;;;;3.15;2.17;;;;;;;;;;12644059;23;20025;-86
2022/11/15 20:14:58;;;;;;;2.60;2.00;;;;;;;;;;12626835;23;20018;-85
2022/11/15 20:20:44;;;;;;;2.67;2.35;;;;;;;;;;12631469;23;20034;-86
